sensor_id;sensor_type;location;lat;lon;timestamp;P1;P2;P0
57798;PMS7003;43626;53.866;30.298;2022-09-09T00:04:11;4.4;4.4;2.6
57798;PMS7003;43626;53.866;30.298;2022-09-09T00:08:53;5.6;4.6;2.2
57798;PMS7003;43626;53.866;30.298;2022-09-09T00:14:02;5;3.8;2.2
57798;PMS7003;43626;53.866;30.298;2022-09-09T00:23:24;4.2;3.6;2.6
57798;PMS7003;43626;53.866;30.298;2022-09-09T00:29:05;6.4;4.2;2.4
57798;PMS7003;43626;53.866;30.298;2022-09-09T00:33:41;5.8;4.6;2.8
57798;PMS7003;43626;53.866;30.298;2022-09-09T00:38:22;6.2;5;3
57798;PMS7003;43626;53.866;30.298;2022-09-09T00:48:52;7;5.6;3
57798;PMS7003;43626;53.866;30.298;2022-09-09T00:53:32;5.8;5.2;3.6
57798;PMS7003;43626;53.866;30.298;2022-09-09T00:58:43;4;4;2.8
57798;PMS7003;43626;53.866;30.298;2022-09-09T01:03:54;4.2;4;2.6
57798;PMS7003;43626;53.866;30.298;2022-09-09T01:13:24;4.4;4;3
57798;PMS7003;43626;53.866;30.298;2022-09-09T01:19:03;5.8;5;2.8
57798;PMS7003;43626;53.866;30.298;2022-09-09T01:24:08;6;4.6;3
57798;PMS7003;43626;53.866;30.298;2022-09-09T01:29:01;6.6;5.4;3.2
57798;PMS7003;43626;53.866;30.298;2022-09-09T01:33:19;7;5;3
57798;PMS7003;43626;53.866;30.298;2022-09-09T04:59:07;17;15;10
57798;PMS7003;43626;53.866;30.298;2022-09-09T05:03:41;19;17;10.4
57798;PMS7003;43626;53.866;30.298;2022-09-09T05:09:08;17.8;16;10.6
57798;PMS7003;43626;53.866;30.298;2022-09-09T05:14:07;14.6;12;8
57798;PMS7003;43626;53.866;30.298;2022-09-09T05:18:21;19.4;13.4;8
57798;PMS7003;43626;53.866;30.298;2022-09-09T05:23:32;55.4;40.2;23.6
57798;PMS7003;43626;53.866;30.298;2022-09-09T05:28:33;29.4;24;13.6
57798;PMS7003;43626;53.866;30.298;2022-09-09T05:33:57;20.5;16.5;10.3
57798;PMS7003;43626;53.866;30.298;2022-09-09T05:38:57;30;24.8;15.2
57798;PMS7003;43626;53.866;30.298;2022-09-09T05:43:55;14.6;12;7.6
57798;PMS7003;43626;53.866;30.298;2022-09-09T05:48:55;15.4;12.2;7.2
57798;PMS7003;43626;53.866;30.298;2022-09-09T05:53:51;19.4;17.6;10.8
57798;PMS7003;43626;53.866;30.298;2022-09-09T05:58:41;15.8;13;8.8
57798;PMS7003;43626;53.866;30.298;2022-09-09T06:03:53;10.4;8.6;6.2
57798;PMS7003;43626;53.866;30.298;2022-09-09T06:08:21;11;8.2;5.2
57798;PMS7003;43626;53.866;30.298;2022-09-09T06:13:31;6.8;6.2;4
57798;PMS7003;43626;53.866;30.298;2022-09-09T06:18:52;7.2;6.6;4.4
57798;PMS7003;43626;53.866;30.298;2022-09-09T06:24:07;9;6.4;4
57798;PMS7003;43626;53.866;30.298;2022-09-09T06:28:54;7;6;3.6
57798;PMS7003;43626;53.866;30.298;2022-09-09T06:33:32;5.3;2.5;1.5
57798;PMS7003;43626;53.866;30.298;2022-09-09T06:38:42;3.2;2.2;0.8
57798;PMS7003;43626;53.866;30.298;2022-09-09T06:43:55;2.8;1.8;0.8
57798;PMS7003;43626;53.866;30.298;2022-09-09T06:49:09;3.2;2.6;1.2
57798;PMS7003;43626;53.866;30.298;2022-09-09T06:53:32;7;5.6;2.8
57798;PMS7003;43626;53.866;30.298;2022-09-09T06:58:22;9;6.6;3
57798;PMS7003;43626;53.866;30.298;2022-09-09T07:03:32;6.2;3.6;1.8
57798;PMS7003;43626;53.866;30.298;2022-09-09T07:08:21;5.8;4.6;2.6
57798;PMS7003;43626;53.866;30.298;2022-09-09T07:13:46;4;3.6;2
57798;PMS7003;43626;53.866;30.298;2022-09-09T07:18:45;2.6;1.4;0.6
57798;PMS7003;43626;53.866;30.298;2022-09-09T07:23:53;3.4;2;1
57798;PMS7003;43626;53.866;30.298;2022-09-09T07:29:11;2.8;2.4;1
57798;PMS7003;43626;53.866;30.298;2022-09-09T07:33:22;2.5;1.8;0.8
57798;PMS7003;43626;53.866;30.298;2022-09-09T07:39:10;2.2;2;0.6
57798;PMS7003;43626;53.866;30.298;2022-09-09T07:44:11;2.8;1.6;0.8
57798;PMS7003;43626;53.866;30.298;2022-09-09T07:48:21;2.6;1;0.2
57798;PMS7003;43626;53.866;30.298;2022-09-09T07:53:31;1;0.6;0
57798;PMS7003;43626;53.866;30.298;2022-09-09T07:58:21;0.2;0.2;0
57798;PMS7003;43626;53.866;30.298;2022-09-09T08:03:46;0.4;0.4;0
57798;PMS7003;43626;53.866;30.298;2022-09-09T08:08:56;0;0;0
57798;PMS7003;43626;53.866;30.298;2022-09-09T08:13:57;0.4;0.4;0
57798;PMS7003;43626;53.866;30.298;2022-09-09T08:18:57;1.2;0.4;0.2
57798;PMS7003;43626;53.866;30.298;2022-09-09T08:23:54;0.6;0;0
57798;PMS7003;43626;53.866;30.298;2022-09-09T08:28:21;0.8;0.2;0
57798;PMS7003;43626;53.866;30.298;2022-09-09T08:33:56;0;0;0
57798;PMS7003;43626;53.866;30.298;2022-09-09T08:39:11;0.6;0.2;0
57798;PMS7003;43626;53.866;30.298;2022-09-09T08:43:31;0.2;0;0
57798;PMS7003;43626;53.866;30.298;2022-09-09T08:48:48;3.6;1.8;0.8
57798;PMS7003;43626;53.866;30.298;2022-09-09T08:54:13;3.8;2.4;0.8
57798;PMS7003;43626;53.866;30.298;2022-09-09T08:59:02;0.2;0;0
57798;PMS7003;43626;53.866;30.298;2022-09-09T09:08:48;0.6;0;0
57798;PMS7003;43626;53.866;30.298;2022-09-09T09:14:22;0.2;0;0
57798;PMS7003;43626;53.866;30.298;2022-09-09T09:19:12;0.6;0.2;0
57798;PMS7003;43626;53.866;30.298;2022-09-09T09:24:00;0.4;0;0
57798;PMS7003;43626;53.866;30.298;2022-09-09T09:28:41;0;0;0
57798;PMS7003;43626;53.866;30.298;2022-09-09T09:33:30;0.8;0.4;0
57798;PMS7003;43626;53.866;30.298;2022-09-09T09:38:23;0.3;0.3;0
57798;PMS7003;43626;53.866;30.298;2022-09-09T09:43:52;0.4;0;0
57798;PMS7003;43626;53.866;30.298;2022-09-09T09:48:43;0.4;0.2;0
57798;PMS7003;43626;53.866;30.298;2022-09-09T09:54:17;0.2;0.2;0
57798;PMS7003;43626;53.866;30.298;2022-09-09T09:58:53;0.8;0.8;0.4
57798;PMS7003;43626;53.866;30.298;2022-09-09T10:03:50;2.8;1.4;0.6
57798;PMS7003;43626;53.866;30.298;2022-09-09T10:09:37;11.6;10.2;6
57798;PMS7003;43626;53.866;30.298;2022-09-09T10:19:46;3.8;3;1.6
57798;PMS7003;43626;53.866;30.298;2022-09-09T10:24:39;2.4;1;0.4
57798;PMS7003;43626;53.866;30.298;2022-09-09T10:28:37;0.8;0.2;0
57798;PMS7003;43626;53.866;30.298;2022-09-09T10:38:58;0.8;0.5;0.3
57798;PMS7003;43626;53.866;30.298;2022-09-09T10:43:38;0.6;0.4;0
57798;PMS7003;43626;53.866;30.298;2022-09-09T10:49:01;0.2;0.2;0
57798;PMS7003;43626;53.866;30.298;2022-09-09T10:53:58;0.4;0;0
57798;PMS7003;43626;53.866;30.298;2022-09-09T10:58:42;0.2;0.2;0
57798;PMS7003;43626;53.866;30.298;2022-09-09T11:03:55;1;0.4;0
57798;PMS7003;43626;53.866;30.298;2022-09-09T11:09:20;2;1.4;0
57798;PMS7003;43626;53.866;30.298;2022-09-09T11:18:31;0;0;0
57798;PMS7003;43626;53.866;30.298;2022-09-09T11:24:09;0;0;0
57798;PMS7003;43626;53.866;30.298;2022-09-09T11:34:06;0.2;0;0
57798;PMS7003;43626;53.866;30.298;2022-09-09T11:38:45;0;0;0
57798;PMS7003;43626;53.866;30.298;2022-09-09T11:44:11;0.4;0;0
57798;PMS7003;43626;53.866;30.298;2022-09-09T11:49:40;0.2;0.2;0
57798;PMS7003;43626;53.866;30.298;2022-09-09T11:53:32;0.4;0;0
57798;PMS7003;43626;53.866;30.298;2022-09-09T11:58:43;0.8;0.2;0
57798;PMS7003;43626;53.866;30.298;2022-09-09T12:03:47;0.4;0.4;0
57798;PMS7003;43626;53.866;30.298;2022-09-09T12:08:25;0;0;0
57798;PMS7003;43626;53.866;30.298;2022-09-09T12:13:51;0.4;0.2;0
57798;PMS7003;43626;53.866;30.298;2022-09-09T12:18:43;0.6;0.4;0
57798;PMS7003;43626;53.866;30.298;2022-09-09T12:23:55;0.2;0.2;0
57798;PMS7003;43626;53.866;30.298;2022-09-09T12:29:02;0.4;0.4;0
57798;PMS7003;43626;53.866;30.298;2022-09-09T12:33:32;2.4;1.4;0.4
57798;PMS7003;43626;53.866;30.298;2022-09-09T12:38:53;2.3;1.8;0.5
57798;PMS7003;43626;53.866;30.298;2022-09-09T12:44:09;1.2;0.4;0.2
57798;PMS7003;43626;53.866;30.298;2022-09-09T12:49:39;0.2;0.2;0
57798;PMS7003;43626;53.866;30.298;2022-09-09T12:53:22;1.2;0.2;0
57798;PMS7003;43626;53.866;30.298;2022-09-09T12:58:31;1.2;0.8;0
57798;PMS7003;43626;53.866;30.298;2022-09-09T13:03:22;0.8;0.8;0.2
57798;PMS7003;43626;53.866;30.298;2022-09-09T13:08:33;0.4;0;0
57798;PMS7003;43626;53.866;30.298;2022-09-09T13:13:54;0.8;0.8;0
57798;PMS7003;43626;53.866;30.298;2022-09-09T13:19:00;3.8;1.8;0.8
57798;PMS7003;43626;53.866;30.298;2022-09-09T13:24:00;7;5;3.2
57798;PMS7003;43626;53.866;30.298;2022-09-09T13:28:48;2.4;1.6;0.4
57798;PMS7003;43626;53.866;30.298;2022-09-09T13:33:54;1.2;0.6;0.4
57798;PMS7003;43626;53.866;30.298;2022-09-09T13:38:55;0.3;0.3;0
57798;PMS7003;43626;53.866;30.298;2022-09-09T13:43:22;2.4;1;0.4
57798;PMS7003;43626;53.866;30.298;2022-09-09T13:48:31;1.8;0.8;0.4
57798;PMS7003;43626;53.866;30.298;2022-09-09T13:53:21;1.8;1.6;0.2
57798;PMS7003;43626;53.866;30.298;2022-09-09T13:59:10;3.8;3;1.6
57798;PMS7003;43626;53.866;30.298;2022-09-09T14:03:55;4.4;3.6;2
57798;PMS7003;43626;53.866;30.298;2022-09-09T14:08:23;1.4;1.4;0.6
57798;PMS7003;43626;53.866;30.298;2022-09-09T14:13:21;2;1.8;0.4
57798;PMS7003;43626;53.866;30.298;2022-09-09T14:19:03;2.6;2.4;1.2
57798;PMS7003;43626;53.866;30.298;2022-09-09T14:24:12;1.8;1.6;0.6
57798;PMS7003;43626;53.866;30.298;2022-09-09T14:28:40;1.8;1.6;0.8
57798;PMS7003;43626;53.866;30.298;2022-09-09T14:33:52;2.4;1.6;0.4
57798;PMS7003;43626;53.866;30.298;2022-09-09T14:38:35;2.8;2;1
57798;PMS7003;43626;53.866;30.298;2022-09-09T14:43:32;4;2.5;1.3
57798;PMS7003;43626;53.866;30.298;2022-09-09T14:48:46;6.2;4.6;1.6
57798;PMS7003;43626;53.866;30.298;2022-09-09T14:53:46;4.2;3.6;2.2
57798;PMS7003;43626;53.866;30.298;2022-09-09T14:58:53;4.4;4;2.4
57798;PMS7003;43626;53.866;30.298;2022-09-09T15:03:57;2.2;2.2;1.2
57798;PMS7003;43626;53.866;30.298;2022-09-09T15:08:44;3.8;2.2;1.2
57798;PMS7003;43626;53.866;30.298;2022-09-09T15:14:08;2.6;2.2;1.4
57798;PMS7003;43626;53.866;30.298;2022-09-09T15:19:10;2.8;2.4;0.6
57798;PMS7003;43626;53.866;30.298;2022-09-09T15:23:32;5.8;4.8;2.8
57798;PMS7003;43626;53.866;30.298;2022-09-09T15:28:33;7.4;6;3.2
57798;PMS7003;43626;53.866;30.298;2022-09-09T15:33:22;4.4;3.6;2
57798;PMS7003;43626;53.866;30.298;2022-09-09T15:39:09;10.6;6.8;2.6
57798;PMS7003;43626;53.866;30.298;2022-09-09T15:43:54;9;6;3.5
57798;PMS7003;43626;53.866;30.298;2022-09-09T15:49:05;5.6;3.6;2.4
57798;PMS7003;43626;53.866;30.298;2022-09-09T15:53:58;6;4.4;3
57798;PMS7003;43626;53.866;30.298;2022-09-09T15:58:48;4;3.2;1.8
57798;PMS7003;43626;53.866;30.298;2022-09-09T16:03:40;8;6.2;3.6
57798;PMS7003;43626;53.866;30.298;2022-09-09T16:08:54;10;8.2;5.4
57798;PMS7003;43626;53.866;30.298;2022-09-09T16:13:22;27.6;21.6;12.6
57798;PMS7003;43626;53.866;30.298;2022-09-09T16:18:22;41.8;31.6;17.8
57798;PMS7003;43626;53.866;30.298;2022-09-09T16:23:32;26;22;12.6
57798;PMS7003;43626;53.866;30.298;2022-09-09T16:29:08;40;29.4;17.2
57798;PMS7003;43626;53.866;30.298;2022-09-09T16:33:56;36.4;29;16.8
57798;PMS7003;43626;53.866;30.298;2022-09-09T16:38:32;31.6;27.4;14.6
57798;PMS7003;43626;53.866;30.298;2022-09-09T16:43:22;42.5;30.5;17.5
57798;PMS7003;43626;53.866;30.298;2022-09-09T16:48:58;41.4;33;19.2
57798;PMS7003;43626;53.866;30.298;2022-09-09T16:54:08;40.2;31.8;20.2
57798;PMS7003;43626;53.866;30.298;2022-09-09T16:58:32;62.6;47.2;30.6
57798;PMS7003;43626;53.866;30.298;2022-09-09T17:03:22;61;46;28.8
57798;PMS7003;43626;53.866;30.298;2022-09-09T17:08:32;55.8;41.6;25.2
57798;PMS7003;43626;53.866;30.298;2022-09-09T17:13:32;60;45.4;27.6
57798;PMS7003;43626;53.866;30.298;2022-09-09T17:18:46;59.4;43.4;26.2
57798;PMS7003;43626;53.866;30.298;2022-09-09T17:23:34;56.2;41.6;25.2
57798;PMS7003;43626;53.866;30.298;2022-09-09T17:28:54;46.8;34.8;20.8
57798;PMS7003;43626;53.866;30.298;2022-09-09T17:34:08;44.4;32.8;19.2
57798;PMS7003;43626;53.866;30.298;2022-09-09T17:38:44;38.8;31.2;19
57798;PMS7003;43626;53.866;30.298;2022-09-09T17:43:56;43;32.5;19
57798;PMS7003;43626;53.866;30.298;2022-09-09T17:48:58;42.8;33.2;19.4
57798;PMS7003;43626;53.866;30.298;2022-09-09T17:54:14;49.2;37.6;22
57798;PMS7003;43626;53.866;30.298;2022-09-09T17:58:32;53.4;39.4;23.4
57798;PMS7003;43626;53.866;30.298;2022-09-09T18:04:03;62.8;46.8;27.6
57798;PMS7003;43626;53.866;30.298;2022-09-09T18:09:13;62.8;46.4;26.8
57798;PMS7003;43626;53.866;30.298;2022-09-09T18:13:57;54.8;41.6;24.6
57798;PMS7003;43626;53.866;30.298;2022-09-09T18:18:46;54.8;40.8;24.8
57798;PMS7003;43626;53.866;30.298;2022-09-09T18:23:48;53.6;40.2;23.6
57798;PMS7003;43626;53.866;30.298;2022-09-09T18:28:57;46.6;35.8;21.6
57798;PMS7003;43626;53.866;30.298;2022-09-09T18:33:41;51.4;38.4;22.4
57798;PMS7003;43626;53.866;30.298;2022-09-09T18:38:38;58;42.2;24.8
57798;PMS7003;43626;53.866;30.298;2022-09-09T18:44:11;50.8;39.5;23.8
57798;PMS7003;43626;53.866;30.298;2022-09-09T18:48:22;52.2;40;24.2
57798;PMS7003;43626;53.866;30.298;2022-09-09T18:53:32;49.4;37.4;22
57798;PMS7003;43626;53.866;30.298;2022-09-09T18:59:10;51;39.2;24.2
57798;PMS7003;43626;53.866;30.298;2022-09-09T19:04:08;80.8;59.8;31.8
57798;PMS7003;43626;53.866;30.298;2022-09-09T19:09:08;123;94.4;45
57798;PMS7003;43626;53.866;30.298;2022-09-09T19:13:48;79.8;60.4;32.2
57798;PMS7003;43626;53.866;30.298;2022-09-09T19:19:07;75.2;57.6;31.4
57798;PMS7003;43626;53.866;30.298;2022-09-09T19:24:11;85;62.2;32.6
57798;PMS7003;43626;53.866;30.298;2022-09-09T19:28:40;68;50;29.6
57798;PMS7003;43626;53.866;30.298;2022-09-09T19:33:32;59.8;43.6;25.8
57798;PMS7003;43626;53.866;30.298;2022-09-09T19:38:30;56;41.2;23.4
57798;PMS7003;43626;53.866;30.298;2022-09-09T19:43:23;73.2;54.2;28
57798;PMS7003;43626;53.866;30.298;2022-09-09T19:48:42;124;89;37.3
57798;PMS7003;43626;53.866;30.298;2022-09-09T19:53:22;102;75.6;34
57798;PMS7003;43626;53.866;30.298;2022-09-09T19:59:10;87.8;64.8;32
57798;PMS7003;43626;53.866;30.298;2022-09-09T20:04:10;74.4;55;30.2
57798;PMS7003;43626;53.866;30.298;2022-09-09T20:08:44;57;43.2;25
57798;PMS7003;43626;53.866;30.298;2022-09-09T20:14:10;58.4;43;26.2
57798;PMS7003;43626;53.866;30.298;2022-09-09T20:18:54;57.2;43.4;26.2
57798;PMS7003;43626;53.866;30.298;2022-09-09T20:24:10;68.4;49.4;29.2
57798;PMS7003;43626;53.866;30.298;2022-09-09T20:28:20;61.8;45.2;26.6
57798;PMS7003;43626;53.866;30.298;2022-09-09T20:33:20;55.2;40.6;24.2
57798;PMS7003;43626;53.866;30.298;2022-09-09T20:39:11;47.4;36.6;22.4
57798;PMS7003;43626;53.866;30.298;2022-09-09T20:43:55;45.6;35;20.8
57798;PMS7003;43626;53.866;30.298;2022-09-09T20:48:45;40.3;33;20.3
57798;PMS7003;43626;53.866;30.298;2022-09-09T20:54:03;38.6;31.6;19
57798;PMS7003;43626;53.866;30.298;2022-09-09T20:58:56;45.2;34.6;20.2
57798;PMS7003;43626;53.866;30.298;2022-09-09T21:03:33;42.2;33;20.4
57798;PMS7003;43626;53.866;30.298;2022-09-09T21:08:48;37.4;29.4;16.8
57798;PMS7003;43626;53.866;30.298;2022-09-09T21:14:08;44.2;33.4;20
57798;PMS7003;43626;53.866;30.298;2022-09-09T21:18:22;38.6;29.4;18
57798;PMS7003;43626;53.866;30.298;2022-09-09T21:23:32;36;28.6;16.4
57798;PMS7003;43626;53.866;30.298;2022-09-09T21:29:10;40.4;32.4;19
57798;PMS7003;43626;53.866;30.298;2022-09-09T21:34:08;37.8;29.2;17.6
57798;PMS7003;43626;53.866;30.298;2022-09-09T21:39:08;32.8;27;15.8
57798;PMS7003;43626;53.866;30.298;2022-09-09T21:43:49;34.6;28.4;16
57798;PMS7003;43626;53.866;30.298;2022-09-09T21:49:10;27.8;24.8;14.5
57798;PMS7003;43626;53.866;30.298;2022-09-09T21:54:08;31;24.6;15.2
57798;PMS7003;43626;53.866;30.298;2022-09-09T21:58:40;34.4;27;16.8
57798;PMS7003;43626;53.866;30.298;2022-09-09T22:03:40;40.4;32.2;18.8
57798;PMS7003;43626;53.866;30.298;2022-09-09T22:08:32;39;30.8;18
57798;PMS7003;43626;53.866;30.298;2022-09-09T22:13:22;32.6;24.6;15.2
57798;PMS7003;43626;53.866;30.298;2022-09-09T22:18:22;25.6;21.2;12.6
57798;PMS7003;43626;53.866;30.298;2022-09-09T22:23:47;24.6;23;13.6
57798;PMS7003;43626;53.866;30.298;2022-09-09T22:28:54;28.6;22.8;14
57798;PMS7003;43626;53.866;30.298;2022-09-09T22:33:46;33.6;26;14.4
57798;PMS7003;43626;53.866;30.298;2022-09-09T22:39:10;26.2;22.8;13.2
57798;PMS7003;43626;53.866;30.298;2022-09-09T22:43:44;28;21.8;12.4
57798;PMS7003;43626;53.866;30.298;2022-09-09T22:48:52;25.8;19.5;11.5
57798;PMS7003;43626;53.866;30.298;2022-09-09T22:54:08;20.6;17.2;10.8
57798;PMS7003;43626;53.866;30.298;2022-09-09T22:58:38;20.2;16.2;10.4
57798;PMS7003;43626;53.866;30.298;2022-09-09T23:03:32;31.8;22.8;13.2
57798;PMS7003;43626;53.866;30.298;2022-09-09T23:08:31;27.2;24.2;15
57798;PMS7003;43626;53.866;30.298;2022-09-09T23:14:06;27.6;24;14.4
57798;PMS7003;43626;53.866;30.298;2022-09-09T23:18:56;23;18.2;11.4
57798;PMS7003;43626;53.866;30.298;2022-09-09T23:24:00;24.6;19.8;10.8
57798;PMS7003;43626;53.866;30.298;2022-09-09T23:29:00;21.4;17.6;10.8
57798;PMS7003;43626;53.866;30.298;2022-09-09T23:33:36;20.6;16;10
57798;PMS7003;43626;53.866;30.298;2022-09-09T23:38:30;17.6;14.4;9.6
57798;PMS7003;43626;53.866;30.298;2022-09-09T23:43:40;16.4;14.8;8.6
57798;PMS7003;43626;53.866;30.298;2022-09-09T23:48:30;13.5;11.8;7.8
57798;PMS7003;43626;53.866;30.298;2022-09-09T23:53:32;13.6;12.6;7.8
57798;PMS7003;43626;53.866;30.298;2022-09-09T23:58:56;15.4;13.8;8.6
